sensor_id;sensor_type;location;lat;lon;timestamp;P1;durP1;ratioP1;P2;durP2;ratioP2
37495;SDS011;23346;52.088;4.746;2023-02-23T00:01:55;3.50;;;3.30;;
37495;SDS011;23346;52.088;4.746;2023-02-23T00:04:22;2.67;;;2.00;;
37495;SDS011;23346;52.088;4.746;2023-02-23T00:06:48;4.07;;;3.10;;
37495;SDS011;23346;52.088;4.746;2023-02-23T00:09:16;1.77;;;1.67;;
37495;SDS011;23346;52.088;4.746;2023-02-23T00:11:52;3.50;;;3.27;;
37495;SDS011;23346;52.088;4.746;2023-02-23T00:14:19;3.97;;;3.73;;
37495;SDS011;23346;52.088;4.746;2023-02-23T00:16:45;4.77;;;2.80;;
37495;SDS011;23346;52.088;4.746;2023-02-23T00:19:11;10.47;;;6.53;;
37495;SDS011;23346;52.088;4.746;2023-02-23T00:21:40;4.70;;;3.17;;
37495;SDS011;23346;52.088;4.746;2023-02-23T00:24:07;3.37;;;3.07;;
37495;SDS011;23346;52.088;4.746;2023-02-23T00:26:33;4.77;;;4.20;;
37495;SDS011;23346;52.088;4.746;2023-02-23T00:29:04;4.83;;;3.67;;
37495;SDS011;23346;52.088;4.746;2023-02-23T00:31:31;3.80;;;2.87;;
37495;SDS011;23346;52.088;4.746;2023-02-23T00:33:58;11.27;;;2.37;;
37495;SDS011;23346;52.088;4.746;2023-02-23T00:36:26;3.93;;;2.73;;
37495;SDS011;23346;52.088;4.746;2023-02-23T00:38:53;6.53;;;4.87;;
37495;SDS011;23346;52.088;4.746;2023-02-23T00:41:19;3.67;;;3.03;;
37495;SDS011;23346;52.088;4.746;2023-02-23T00:43:48;14.73;;;5.57;;
37495;SDS011;23346;52.088;4.746;2023-02-23T00:46:15;3.27;;;2.97;;
37495;SDS011;23346;52.088;4.746;2023-02-23T00:48:41;5.40;;;3.67;;
37495;SDS011;23346;52.088;4.746;2023-02-23T00:51:08;2.97;;;2.77;;
37495;SDS011;23346;52.088;4.746;2023-02-23T00:53:34;2.70;;;2.60;;
37495;SDS011;23346;52.088;4.746;2023-02-23T00:56:02;6.20;;;5.13;;
37495;SDS011;23346;52.088;4.746;2023-02-23T00:58:29;2.63;;;2.17;;
37495;SDS011;23346;52.088;4.746;2023-02-23T01:00:55;2.50;;;2.17;;
37495;SDS011;23346;52.088;4.746;2023-02-23T01:03:23;6.83;;;5.07;;
37495;SDS011;23346;52.088;4.746;2023-02-23T01:05:49;6.93;;;4.03;;
37495;SDS011;23346;52.088;4.746;2023-02-23T01:08:16;2.93;;;2.23;;
37495;SDS011;23346;52.088;4.746;2023-02-23T01:10:43;3.40;;;3.10;;
37495;SDS011;23346;52.088;4.746;2023-02-23T01:13:20;5.40;;;3.70;;
37495;SDS011;23346;52.088;4.746;2023-02-23T01:15:46;7.77;;;4.30;;
37495;SDS011;23346;52.088;4.746;2023-02-23T01:18:13;4.57;;;3.70;;
37495;SDS011;23346;52.088;4.746;2023-02-23T01:20:40;11.07;;;4.73;;
37495;SDS011;23346;52.088;4.746;2023-02-23T01:23:06;7.13;;;3.50;;
37495;SDS011;23346;52.088;4.746;2023-02-23T01:25:32;3.57;;;3.33;;
37495;SDS011;23346;52.088;4.746;2023-02-23T01:27:59;4.23;;;3.83;;
37495;SDS011;23346;52.088;4.746;2023-02-23T01:30:25;4.13;;;3.73;;
37495;SDS011;23346;52.088;4.746;2023-02-23T01:32:51;9.90;;;5.40;;
37495;SDS011;23346;52.088;4.746;2023-02-23T01:35:17;12.13;;;6.97;;
37495;SDS011;23346;52.088;4.746;2023-02-23T01:37:43;2.67;;;2.47;;
37495;SDS011;23346;52.088;4.746;2023-02-23T01:40:11;7.60;;;5.40;;
37495;SDS011;23346;52.088;4.746;2023-02-23T01:42:39;4.53;;;3.40;;
37495;SDS011;23346;52.088;4.746;2023-02-23T01:47:47;4.87;;;1.93;;
37495;SDS011;23346;52.088;4.746;2023-02-23T01:50:14;2.17;;;2.07;;
37495;SDS011;23346;52.088;4.746;2023-02-23T01:52:42;2.40;;;2.27;;
37495;SDS011;23346;52.088;4.746;2023-02-23T01:55:08;3.03;;;2.87;;
37495;SDS011;23346;52.088;4.746;2023-02-23T01:57:37;2.50;;;2.37;;
37495;SDS011;23346;52.088;4.746;2023-02-23T02:00:04;6.30;;;5.03;;
37495;SDS011;23346;52.088;4.746;2023-02-23T02:02:38;6.80;;;6.13;;
37495;SDS011;23346;52.088;4.746;2023-02-23T02:05:04;40.70;;;5.23;;
37495;SDS011;23346;52.088;4.746;2023-02-23T02:07:37;2.37;;;2.27;;
37495;SDS011;23346;52.088;4.746;2023-02-23T02:10:04;6.23;;;4.37;;
37495;SDS011;23346;52.088;4.746;2023-02-23T02:12:37;13.17;;;4.37;;
37495;SDS011;23346;52.088;4.746;2023-02-23T02:15:04;4.00;;;3.60;;
37495;SDS011;23346;52.088;4.746;2023-02-23T02:17:40;14.43;;;3.90;;
37495;SDS011;23346;52.088;4.746;2023-02-23T02:30:43;6.07;;;3.20;;
37495;SDS011;23346;52.088;4.746;2023-02-23T02:43:48;1.90;;;1.87;;
37495;SDS011;23346;52.088;4.746;2023-02-23T02:46:29;5.87;;;4.07;;
37495;SDS011;23346;52.088;4.746;2023-02-23T02:49:05;3.73;;;3.40;;
37495;SDS011;23346;52.088;4.746;2023-02-23T02:51:34;5.27;;;3.70;;
37495;SDS011;23346;52.088;4.746;2023-02-23T02:54:13;3.83;;;3.30;;
37495;SDS011;23346;52.088;4.746;2023-02-23T02:56:42;5.33;;;4.67;;
37495;SDS011;23346;52.088;4.746;2023-02-23T02:59:11;5.50;;;4.20;;
37495;SDS011;23346;52.088;4.746;2023-02-23T03:01:56;6.30;;;5.23;;
37495;SDS011;23346;52.088;4.746;2023-02-23T03:04:41;2.03;;;1.90;;
37495;SDS011;23346;52.088;4.746;2023-02-23T03:07:28;4.67;;;3.43;;
37495;SDS011;23346;52.088;4.746;2023-02-23T03:10:22;3.17;;;2.70;;
37495;SDS011;23346;52.088;4.746;2023-02-23T03:13:17;6.97;;;3.80;;
37495;SDS011;23346;52.088;4.746;2023-02-23T03:19:06;6.83;;;5.50;;
37495;SDS011;23346;52.088;4.746;2023-02-23T03:21:55;4.47;;;4.07;;
37495;SDS011;23346;52.088;4.746;2023-02-23T03:24:44;14.07;;;5.30;;
37495;SDS011;23346;52.088;4.746;2023-02-23T03:30:29;4.13;;;3.77;;
37495;SDS011;23346;52.088;4.746;2023-02-23T03:33:19;6.50;;;5.73;;
37495;SDS011;23346;52.088;4.746;2023-02-23T03:36:11;1.27;;;1.27;;
37495;SDS011;23346;52.088;4.746;2023-02-23T03:38:59;10.10;;;5.10;;
37495;SDS011;23346;52.088;4.746;2023-02-23T03:41:45;2.80;;;2.60;;
37495;SDS011;23346;52.088;4.746;2023-02-23T03:44:33;4.00;;;3.67;;
37495;SDS011;23346;52.088;4.746;2023-02-23T03:47:21;5.30;;;4.90;;
37495;SDS011;23346;52.088;4.746;2023-02-23T03:50:07;6.27;;;4.43;;
37495;SDS011;23346;52.088;4.746;2023-02-23T03:52:54;8.27;;;2.77;;
37495;SDS011;23346;52.088;4.746;2023-02-23T03:55:41;3.90;;;2.70;;
37495;SDS011;23346;52.088;4.746;2023-02-23T03:58:30;1.83;;;1.77;;
37495;SDS011;23346;52.088;4.746;2023-02-23T04:01:17;1.23;;;1.23;;
37495;SDS011;23346;52.088;4.746;2023-02-23T04:04:03;8.10;;;6.37;;
37495;SDS011;23346;52.088;4.746;2023-02-23T04:06:48;6.10;;;4.53;;
37495;SDS011;23346;52.088;4.746;2023-02-23T04:09:33;22.23;;;3.43;;
37495;SDS011;23346;52.088;4.746;2023-02-23T04:12:20;8.40;;;4.60;;
37495;SDS011;23346;52.088;4.746;2023-02-23T04:15:12;15.27;;;4.40;;
37495;SDS011;23346;52.088;4.746;2023-02-23T04:17:39;6.60;;;6.10;;
37495;SDS011;23346;52.088;4.746;2023-02-23T04:20:07;3.63;;;3.13;;
37495;SDS011;23346;52.088;4.746;2023-02-23T04:22:34;2.57;;;2.47;;
37495;SDS011;23346;52.088;4.746;2023-02-23T04:25:00;5.87;;;4.17;;
37495;SDS011;23346;52.088;4.746;2023-02-23T04:27:26;3.30;;;3.10;;
37495;SDS011;23346;52.088;4.746;2023-02-23T04:29:52;11.10;;;3.33;;
37495;SDS011;23346;52.088;4.746;2023-02-23T04:32:19;5.13;;;4.57;;
37495;SDS011;23346;52.088;4.746;2023-02-23T04:34:45;6.43;;;4.47;;
37495;SDS011;23346;52.088;4.746;2023-02-23T04:37:11;5.43;;;4.93;;
37495;SDS011;23346;52.088;4.746;2023-02-23T04:39:37;5.17;;;4.47;;
37495;SDS011;23346;52.088;4.746;2023-02-23T04:42:03;6.47;;;3.83;;
37495;SDS011;23346;52.088;4.746;2023-02-23T04:44:29;4.43;;;3.50;;
37495;SDS011;23346;52.088;4.746;2023-02-23T04:46:56;3.97;;;3.60;;
37495;SDS011;23346;52.088;4.746;2023-02-23T04:49:22;7.03;;;3.60;;
37495;SDS011;23346;52.088;4.746;2023-02-23T04:51:48;9.93;;;3.20;;
37495;SDS011;23346;52.088;4.746;2023-02-23T04:54:14;5.67;;;3.00;;
37495;SDS011;23346;52.088;4.746;2023-02-23T04:56:40;4.30;;;3.90;;
37495;SDS011;23346;52.088;4.746;2023-02-23T04:59:06;5.63;;;5.07;;
37495;SDS011;23346;52.088;4.746;2023-02-23T05:01:32;7.93;;;4.87;;
37495;SDS011;23346;52.088;4.746;2023-02-23T05:04:01;5.03;;;4.53;;
37495;SDS011;23346;52.088;4.746;2023-02-23T05:06:27;4.93;;;2.97;;
37495;SDS011;23346;52.088;4.746;2023-02-23T05:08:53;5.00;;;4.40;;
37495;SDS011;23346;52.088;4.746;2023-02-23T05:11:19;8.03;;;5.00;;
37495;SDS011;23346;52.088;4.746;2023-02-23T05:13:45;5.23;;;4.80;;
37495;SDS011;23346;52.088;4.746;2023-02-23T05:16:11;5.57;;;4.67;;
37495;SDS011;23346;52.088;4.746;2023-02-23T05:18:37;4.30;;;3.53;;
37495;SDS011;23346;52.088;4.746;2023-02-23T05:21:03;10.40;;;5.83;;
37495;SDS011;23346;52.088;4.746;2023-02-23T05:23:30;8.13;;;5.53;;
37495;SDS011;23346;52.088;4.746;2023-02-23T05:26:04;3.73;;;3.53;;
37495;SDS011;23346;52.088;4.746;2023-02-23T05:28:30;4.23;;;3.87;;
37495;SDS011;23346;52.088;4.746;2023-02-23T05:30:57;4.00;;;3.73;;
37495;SDS011;23346;52.088;4.746;2023-02-23T05:33:23;2.87;;;2.67;;
37495;SDS011;23346;52.088;4.746;2023-02-23T05:35:49;5.10;;;3.07;;
37495;SDS011;23346;52.088;4.746;2023-02-23T05:38:15;4.83;;;4.23;;
37495;SDS011;23346;52.088;4.746;2023-02-23T05:40:41;2.10;;;2.00;;
37495;SDS011;23346;52.088;4.746;2023-02-23T05:43:07;7.97;;;4.87;;
37495;SDS011;23346;52.088;4.746;2023-02-23T05:45:33;3.20;;;2.90;;
37495;SDS011;23346;52.088;4.746;2023-02-23T05:47:59;8.97;;;4.07;;
37495;SDS011;23346;52.088;4.746;2023-02-23T05:50:25;8.50;;;4.37;;
37495;SDS011;23346;52.088;4.746;2023-02-23T05:52:51;18.30;;;5.20;;
37495;SDS011;23346;52.088;4.746;2023-02-23T05:55:17;1.67;;;1.47;;
37495;SDS011;23346;52.088;4.746;2023-02-23T05:57:44;2.23;;;2.10;;
37495;SDS011;23346;52.088;4.746;2023-02-23T06:00:10;5.53;;;3.73;;
37495;SDS011;23346;52.088;4.746;2023-02-23T06:02:39;6.30;;;2.57;;
37495;SDS011;23346;52.088;4.746;2023-02-23T06:05:06;5.93;;;4.23;;
37495;SDS011;23346;52.088;4.746;2023-02-23T06:07:32;3.30;;;3.00;;
37495;SDS011;23346;52.088;4.746;2023-02-23T06:09:58;9.83;;;4.70;;
37495;SDS011;23346;52.088;4.746;2023-02-23T06:12:24;2.73;;;2.53;;
37495;SDS011;23346;52.088;4.746;2023-02-23T06:14:50;4.03;;;3.73;;
37495;SDS011;23346;52.088;4.746;2023-02-23T06:17:16;3.67;;;3.37;;
37495;SDS011;23346;52.088;4.746;2023-02-23T06:19:43;16.47;;;6.13;;
37495;SDS011;23346;52.088;4.746;2023-02-23T06:22:09;7.53;;;5.20;;
37495;SDS011;23346;52.088;4.746;2023-02-23T06:24:35;7.23;;;4.50;;
37495;SDS011;23346;52.088;4.746;2023-02-23T06:27:01;12.23;;;5.37;;
37495;SDS011;23346;52.088;4.746;2023-02-23T06:29:27;3.87;;;3.50;;
37495;SDS011;23346;52.088;4.746;2023-02-23T06:31:53;1.53;;;1.50;;
37495;SDS011;23346;52.088;4.746;2023-02-23T06:34:19;4.70;;;3.93;;
37495;SDS011;23346;52.088;4.746;2023-02-23T06:36:45;4.60;;;4.20;;
37495;SDS011;23346;52.088;4.746;2023-02-23T06:39:11;7.10;;;6.40;;
37495;SDS011;23346;52.088;4.746;2023-02-23T06:41:37;1.43;;;1.37;;
37495;SDS011;23346;52.088;4.746;2023-02-23T06:44:03;6.73;;;4.67;;
37495;SDS011;23346;52.088;4.746;2023-02-23T06:46:29;21.63;;;7.47;;
37495;SDS011;23346;52.088;4.746;2023-02-23T06:48:57;6.70;;;3.20;;
37495;SDS011;23346;52.088;4.746;2023-02-23T06:51:23;7.57;;;6.23;;
37495;SDS011;23346;52.088;4.746;2023-02-23T06:53:49;9.20;;;3.53;;
37495;SDS011;23346;52.088;4.746;2023-02-23T06:56:18;2.70;;;2.53;;
37495;SDS011;23346;52.088;4.746;2023-02-23T06:58:44;4.50;;;3.07;;
37495;SDS011;23346;52.088;4.746;2023-02-23T07:01:11;6.50;;;6.03;;
37495;SDS011;23346;52.088;4.746;2023-02-23T07:03:37;5.33;;;3.50;;
37495;SDS011;23346;52.088;4.746;2023-02-23T07:06:04;8.13;;;5.30;;
37495;SDS011;23346;52.088;4.746;2023-02-23T07:08:31;7.23;;;2.77;;
37495;SDS011;23346;52.088;4.746;2023-02-23T07:11:11;16.03;;;5.03;;
37495;SDS011;23346;52.088;4.746;2023-02-23T07:13:37;1.97;;;1.87;;
37495;SDS011;23346;52.088;4.746;2023-02-23T07:16:04;3.47;;;2.13;;
37495;SDS011;23346;52.088;4.746;2023-02-23T07:18:30;4.37;;;3.97;;
37495;SDS011;23346;52.088;4.746;2023-02-23T07:20:56;12.57;;;4.57;;
37495;SDS011;23346;52.088;4.746;2023-02-23T07:23:22;2.23;;;2.13;;
37495;SDS011;23346;52.088;4.746;2023-02-23T07:25:51;2.20;;;2.10;;
37495;SDS011;23346;52.088;4.746;2023-02-23T07:28:18;19.83;;;4.23;;
37495;SDS011;23346;52.088;4.746;2023-02-23T07:30:45;5.00;;;2.87;;
37495;SDS011;23346;52.088;4.746;2023-02-23T07:33:13;7.53;;;5.07;;
37495;SDS011;23346;52.088;4.746;2023-02-23T07:35:39;5.47;;;4.20;;
37495;SDS011;23346;52.088;4.746;2023-02-23T07:38:06;4.13;;;3.73;;
37495;SDS011;23346;52.088;4.746;2023-02-23T07:40:32;6.47;;;5.20;;
37495;SDS011;23346;52.088;4.746;2023-02-23T07:42:58;3.00;;;2.80;;
37495;SDS011;23346;52.088;4.746;2023-02-23T07:45:24;3.70;;;3.40;;
37495;SDS011;23346;52.088;4.746;2023-02-23T07:47:51;1.67;;;1.63;;
37495;SDS011;23346;52.088;4.746;2023-02-23T07:50:17;2.67;;;2.50;;
37495;SDS011;23346;52.088;4.746;2023-02-23T07:52:43;14.97;;;4.57;;
37495;SDS011;23346;52.088;4.746;2023-02-23T07:55:09;1.63;;;1.53;;
37495;SDS011;23346;52.088;4.746;2023-02-23T07:57:35;6.70;;;4.30;;
37495;SDS011;23346;52.088;4.746;2023-02-23T08:00:02;5.70;;;2.40;;
37495;SDS011;23346;52.088;4.746;2023-02-23T08:02:28;4.30;;;3.07;;
37495;SDS011;23346;52.088;4.746;2023-02-23T08:04:56;9.57;;;2.83;;
37495;SDS011;23346;52.088;4.746;2023-02-23T08:07:22;6.73;;;4.17;;
37495;SDS011;23346;52.088;4.746;2023-02-23T08:09:50;4.80;;;2.73;;
37495;SDS011;23346;52.088;4.746;2023-02-23T08:12:16;5.80;;;5.23;;
37495;SDS011;23346;52.088;4.746;2023-02-23T08:14:42;2.83;;;2.63;;
37495;SDS011;23346;52.088;4.746;2023-02-23T08:17:08;12.13;;;4.57;;
37495;SDS011;23346;52.088;4.746;2023-02-23T08:19:34;7.40;;;1.83;;
37495;SDS011;23346;52.088;4.746;2023-02-23T08:22:01;7.23;;;3.87;;
37495;SDS011;23346;52.088;4.746;2023-02-23T08:24:27;1.67;;;1.57;;
37495;SDS011;23346;52.088;4.746;2023-02-23T08:26:55;6.43;;;3.63;;
37495;SDS011;23346;52.088;4.746;2023-02-23T08:29:21;6.47;;;3.87;;
37495;SDS011;23346;52.088;4.746;2023-02-23T08:31:47;23.83;;;3.90;;
37495;SDS011;23346;52.088;4.746;2023-02-23T08:34:15;26.63;;;3.17;;
37495;SDS011;23346;52.088;4.746;2023-02-23T08:36:41;2.20;;;2.10;;
37495;SDS011;23346;52.088;4.746;2023-02-23T08:39:09;1.40;;;1.33;;
37495;SDS011;23346;52.088;4.746;2023-02-23T08:41:36;3.03;;;1.13;;
37495;SDS011;23346;52.088;4.746;2023-02-23T08:44:02;3.97;;;2.20;;
37495;SDS011;23346;52.088;4.746;2023-02-23T08:46:28;3.30;;;3.00;;
37495;SDS011;23346;52.088;4.746;2023-02-23T08:48:55;1.13;;;1.03;;
37495;SDS011;23346;52.088;4.746;2023-02-23T08:51:21;5.93;;;2.33;;
37495;SDS011;23346;52.088;4.746;2023-02-23T08:53:47;10.03;;;2.60;;
37495;SDS011;23346;52.088;4.746;2023-02-23T08:56:13;4.73;;;2.53;;
37495;SDS011;23346;52.088;4.746;2023-02-23T08:58:39;5.83;;;2.17;;
37495;SDS011;23346;52.088;4.746;2023-02-23T09:01:05;0.67;;;0.67;;
37495;SDS011;23346;52.088;4.746;2023-02-23T09:03:32;0.60;;;0.60;;
37495;SDS011;23346;52.088;4.746;2023-02-23T09:06:05;7.70;;;3.20;;
37495;SDS011;23346;52.088;4.746;2023-02-23T09:08:32;2.67;;;2.27;;
37495;SDS011;23346;52.088;4.746;2023-02-23T09:10:58;1.87;;;1.40;;
37495;SDS011;23346;52.088;4.746;2023-02-23T09:13:24;1.20;;;1.20;;
37495;SDS011;23346;52.088;4.746;2023-02-23T09:15:50;0.67;;;0.67;;
37495;SDS011;23346;52.088;4.746;2023-02-23T09:18:16;3.47;;;3.17;;
37495;SDS011;23346;52.088;4.746;2023-02-23T09:20:43;6.23;;;2.67;;
37495;SDS011;23346;52.088;4.746;2023-02-23T09:23:09;5.70;;;3.83;;
37495;SDS011;23346;52.088;4.746;2023-02-23T09:25:42;0.73;;;0.73;;
37495;SDS011;23346;52.088;4.746;2023-02-23T09:28:12;4.27;;;2.30;;
37495;SDS011;23346;52.088;4.746;2023-02-23T09:30:39;7.73;;;1.27;;
37495;SDS011;23346;52.088;4.746;2023-02-23T09:33:05;3.13;;;2.23;;
37495;SDS011;23346;52.088;4.746;2023-02-23T09:35:32;1.37;;;1.33;;
37495;SDS011;23346;52.088;4.746;2023-02-23T09:37:58;2.07;;;1.97;;
37495;SDS011;23346;52.088;4.746;2023-02-23T09:40:28;1.77;;;1.67;;
37495;SDS011;23346;52.088;4.746;2023-02-23T09:45:39;2.40;;;2.23;;
37495;SDS011;23346;52.088;4.746;2023-02-23T09:48:20;2.47;;;1.40;;
37495;SDS011;23346;52.088;4.746;2023-02-23T09:50:48;2.40;;;2.13;;
37495;SDS011;23346;52.088;4.746;2023-02-23T09:53:21;2.73;;;1.67;;
37495;SDS011;23346;52.088;4.746;2023-02-23T09:55:49;5.60;;;2.73;;
37495;SDS011;23346;52.088;4.746;2023-02-23T09:58:21;1.90;;;1.80;;
37495;SDS011;23346;52.088;4.746;2023-02-23T10:00:50;7.33;;;1.53;;
37495;SDS011;23346;52.088;4.746;2023-02-23T10:05:51;1.27;;;1.23;;
37495;SDS011;23346;52.088;4.746;2023-02-23T10:11:09;0.63;;;0.63;;
37495;SDS011;23346;52.088;4.746;2023-02-23T10:13:54;2.40;;;1.50;;
37495;SDS011;23346;52.088;4.746;2023-02-23T10:16:35;1.37;;;1.33;;
37495;SDS011;23346;52.088;4.746;2023-02-23T10:21:50;1.47;;;1.37;;
37495;SDS011;23346;52.088;4.746;2023-02-23T10:24:20;1.20;;;1.20;;
37495;SDS011;23346;52.088;4.746;2023-02-23T10:27:03;2.97;;;2.77;;
37495;SDS011;23346;52.088;4.746;2023-02-23T10:29:34;2.10;;;2.00;;
37495;SDS011;23346;52.088;4.746;2023-02-23T10:32:16;1.63;;;1.53;;
37495;SDS011;23346;52.088;4.746;2023-02-23T10:34:44;1.23;;;1.23;;
37495;SDS011;23346;52.088;4.746;2023-02-23T10:37:18;1.20;;;1.20;;
37495;SDS011;23346;52.088;4.746;2023-02-23T10:39:44;2.10;;;1.90;;
37495;SDS011;23346;52.088;4.746;2023-02-23T10:42:14;2.73;;;1.33;;
37495;SDS011;23346;52.088;4.746;2023-02-23T10:44:41;0.87;;;0.87;;
37495;SDS011;23346;52.088;4.746;2023-02-23T10:47:11;2.63;;;1.73;;
37495;SDS011;23346;52.088;4.746;2023-02-23T10:49:43;1.37;;;1.13;;
37495;SDS011;23346;52.088;4.746;2023-02-23T10:52:10;0.70;;;0.70;;
37495;SDS011;23346;52.088;4.746;2023-02-23T10:54:41;1.40;;;1.20;;
37495;SDS011;23346;52.088;4.746;2023-02-23T10:57:08;3.87;;;2.00;;
37495;SDS011;23346;52.088;4.746;2023-02-23T10:59:39;2.50;;;1.60;;
37495;SDS011;23346;52.088;4.746;2023-02-23T11:02:15;2.13;;;1.40;;
37495;SDS011;23346;52.088;4.746;2023-02-23T11:04:54;1.03;;;1.03;;
37495;SDS011;23346;52.088;4.746;2023-02-23T11:09:46;1.77;;;1.67;;
37495;SDS011;23346;52.088;4.746;2023-02-23T11:12:22;3.90;;;2.60;;
37495;SDS011;23346;52.088;4.746;2023-02-23T11:14:51;2.30;;;1.80;;
37495;SDS011;23346;52.088;4.746;2023-02-23T11:19:56;2.70;;;2.50;;
37495;SDS011;23346;52.088;4.746;2023-02-23T11:22:23;3.40;;;2.43;;
37495;SDS011;23346;52.088;4.746;2023-02-23T11:24:50;4.83;;;2.30;;
37495;SDS011;23346;52.088;4.746;2023-02-23T11:27:24;1.30;;;1.30;;
37495;SDS011;23346;52.088;4.746;2023-02-23T11:29:51;4.00;;;2.13;;
37495;SDS011;23346;52.088;4.746;2023-02-23T11:32:20;2.03;;;1.70;;
37495;SDS011;23346;52.088;4.746;2023-02-23T11:34:47;2.20;;;1.83;;
37495;SDS011;23346;52.088;4.746;2023-02-23T11:37:33;1.40;;;1.30;;
37495;SDS011;23346;52.088;4.746;2023-02-23T11:40:01;2.53;;;2.33;;
37495;SDS011;23346;52.088;4.746;2023-02-23T11:42:28;2.47;;;2.27;;
37495;SDS011;23346;52.088;4.746;2023-02-23T11:45:04;3.50;;;2.20;;
37495;SDS011;23346;52.088;4.746;2023-02-23T11:47:31;3.60;;;2.70;;
37495;SDS011;23346;52.088;4.746;2023-02-23T11:49:59;2.97;;;2.77;;
37495;SDS011;23346;52.088;4.746;2023-02-23T11:52:26;5.33;;;2.00;;
37495;SDS011;23346;52.088;4.746;2023-02-23T11:54:56;2.10;;;1.93;;
37495;SDS011;23346;52.088;4.746;2023-02-23T11:57:30;8.47;;;2.17;;
37495;SDS011;23346;52.088;4.746;2023-02-23T11:59:58;1.37;;;1.30;;
37495;SDS011;23346;52.088;4.746;2023-02-23T12:02:28;3.43;;;1.33;;
37495;SDS011;23346;52.088;4.746;2023-02-23T12:10:54;2.73;;;2.53;;
37495;SDS011;23346;52.088;4.746;2023-02-23T12:15:53;1.13;;;1.13;;
37495;SDS011;23346;52.088;4.746;2023-02-23T12:20:48;15.37;;;3.10;;
37495;SDS011;23346;52.088;4.746;2023-02-23T12:23:19;6.50;;;3.07;;
37495;SDS011;23346;52.088;4.746;2023-02-23T12:30:57;1.80;;;1.40;;
37495;SDS011;23346;52.088;4.746;2023-02-23T12:36:05;2.07;;;1.97;;
37495;SDS011;23346;52.088;4.746;2023-02-23T12:41:35;3.53;;;1.93;;
37495;SDS011;23346;52.088;4.746;2023-02-23T12:46:47;4.23;;;2.80;;
37495;SDS011;23346;52.088;4.746;2023-02-23T12:54:38;1.70;;;1.60;;
37495;SDS011;23346;52.088;4.746;2023-02-23T12:59:45;1.90;;;1.70;;
37495;SDS011;23346;52.088;4.746;2023-02-23T13:02:20;3.90;;;2.23;;
37495;SDS011;23346;52.088;4.746;2023-02-23T13:13:04;43.27;;;13.03;;
37495;SDS011;23346;52.088;4.746;2023-02-23T13:15:38;37.43;;;13.50;;
37495;SDS011;23346;52.088;4.746;2023-02-23T13:18:10;33.40;;;12.90;;
37495;SDS011;23346;52.088;4.746;2023-02-23T13:20:42;37.50;;;14.00;;
37495;SDS011;23346;52.088;4.746;2023-02-23T13:25:59;44.00;;;12.97;;
37495;SDS011;23346;52.088;4.746;2023-02-23T13:31:18;33.90;;;13.37;;
37495;SDS011;23346;52.088;4.746;2023-02-23T13:33:45;40.27;;;13.47;;
37495;SDS011;23346;52.088;4.746;2023-02-23T13:36:11;45.30;;;15.73;;
37495;SDS011;23346;52.088;4.746;2023-02-23T13:38:44;49.57;;;14.50;;
37495;SDS011;23346;52.088;4.746;2023-02-23T13:41:30;37.43;;;14.03;;
37495;SDS011;23346;52.088;4.746;2023-02-23T13:44:44;45.30;;;14.97;;
37495;SDS011;23346;52.088;4.746;2023-02-23T13:47:03;44.60;;;16.00;;
37495;SDS011;23346;52.088;4.746;2023-02-23T13:52:02;50.50;;;17.60;;
37495;SDS011;23346;52.088;4.746;2023-02-23T13:54:33;47.80;;;17.07;;
37495;SDS011;23346;52.088;4.746;2023-02-23T13:57:01;46.20;;;16.43;;
37495;SDS011;23346;52.088;4.746;2023-02-23T13:59:28;49.23;;;16.03;;
37495;SDS011;23346;52.088;4.746;2023-02-23T14:01:55;47.37;;;16.37;;
37495;SDS011;23346;52.088;4.746;2023-02-23T14:07:32;51.67;;;17.40;;
37495;SDS011;23346;52.088;4.746;2023-02-23T14:09:42;43.20;;;16.20;;
37495;SDS011;23346;52.088;4.746;2023-02-23T14:19:40;43.77;;;19.30;;
37495;SDS011;23346;52.088;4.746;2023-02-23T14:22:11;40.53;;;17.10;;
37495;SDS011;23346;52.088;4.746;2023-02-23T14:24:37;45.50;;;16.93;;
37495;SDS011;23346;52.088;4.746;2023-02-23T14:27:18;51.57;;;17.17;;
37495;SDS011;23346;52.088;4.746;2023-02-23T14:32:29;38.90;;;14.30;;
37495;SDS011;23346;52.088;4.746;2023-02-23T14:34:59;44.17;;;14.63;;
37495;SDS011;23346;52.088;4.746;2023-02-23T14:37:35;45.03;;;15.07;;
37495;SDS011;23346;52.088;4.746;2023-02-23T14:40:20;48.03;;;14.37;;
37495;SDS011;23346;52.088;4.746;2023-02-23T14:42:48;33.17;;;14.23;;
37495;SDS011;23346;52.088;4.746;2023-02-23T14:45:16;38.73;;;14.43;;
37495;SDS011;23346;52.088;4.746;2023-02-23T14:47:45;34.17;;;13.43;;
37495;SDS011;23346;52.088;4.746;2023-02-23T14:50:13;37.43;;;14.70;;
37495;SDS011;23346;52.088;4.746;2023-02-23T14:52:42;38.87;;;13.73;;
37495;SDS011;23346;52.088;4.746;2023-02-23T14:57:34;30.93;;;13.33;;
37495;SDS011;23346;52.088;4.746;2023-02-23T15:00:01;33.20;;;11.70;;
37495;SDS011;23346;52.088;4.746;2023-02-23T15:02:31;26.93;;;10.83;;
37495;SDS011;23346;52.088;4.746;2023-02-23T15:04:57;20.33;;;7.00;;
37495;SDS011;23346;52.088;4.746;2023-02-23T15:07:39;22.97;;;6.13;;
37495;SDS011;23346;52.088;4.746;2023-02-23T15:10:09;18.10;;;5.60;;
37495;SDS011;23346;52.088;4.746;2023-02-23T15:12:36;11.33;;;4.63;;
37495;SDS011;23346;52.088;4.746;2023-02-23T15:15:04;11.47;;;4.63;;
37495;SDS011;23346;52.088;4.746;2023-02-23T15:17:31;13.87;;;5.20;;
37495;SDS011;23346;52.088;4.746;2023-02-23T15:19:59;11.93;;;4.37;;
37495;SDS011;23346;52.088;4.746;2023-02-23T15:22:27;11.03;;;4.10;;
37495;SDS011;23346;52.088;4.746;2023-02-23T15:24:55;13.87;;;4.73;;
37495;SDS011;23346;52.088;4.746;2023-02-23T15:27:22;10.13;;;3.63;;
37495;SDS011;23346;52.088;4.746;2023-02-23T15:29:51;9.50;;;3.63;;
37495;SDS011;23346;52.088;4.746;2023-02-23T15:32:20;14.53;;;4.03;;
37495;SDS011;23346;52.088;4.746;2023-02-23T15:34:49;9.50;;;3.73;;
37495;SDS011;23346;52.088;4.746;2023-02-23T15:37:34;6.50;;;2.57;;
37495;SDS011;23346;52.088;4.746;2023-02-23T15:40:08;2.83;;;1.60;;
37495;SDS011;23346;52.088;4.746;2023-02-23T15:42:40;7.50;;;2.43;;
37495;SDS011;23346;52.088;4.746;2023-02-23T15:45:15;12.40;;;3.70;;
37495;SDS011;23346;52.088;4.746;2023-02-23T15:47:44;21.00;;;3.70;;
37495;SDS011;23346;52.088;4.746;2023-02-23T15:52:43;9.70;;;3.40;;
37495;SDS011;23346;52.088;4.746;2023-02-23T15:55:11;9.37;;;3.13;;
37495;SDS011;23346;52.088;4.746;2023-02-23T15:57:45;13.93;;;2.77;;
37495;SDS011;23346;52.088;4.746;2023-02-23T16:00:16;14.20;;;3.23;;
37495;SDS011;23346;52.088;4.746;2023-02-23T16:02:51;14.87;;;4.13;;
37495;SDS011;23346;52.088;4.746;2023-02-23T16:05:18;13.70;;;2.73;;
37495;SDS011;23346;52.088;4.746;2023-02-23T16:07:45;24.33;;;3.23;;
37495;SDS011;23346;52.088;4.746;2023-02-23T16:10:18;10.27;;;3.20;;
37495;SDS011;23346;52.088;4.746;2023-02-23T16:12:46;12.10;;;2.50;;
37495;SDS011;23346;52.088;4.746;2023-02-23T16:15:19;9.97;;;2.50;;
37495;SDS011;23346;52.088;4.746;2023-02-23T16:17:49;18.13;;;3.00;;
37495;SDS011;23346;52.088;4.746;2023-02-23T16:20:32;14.17;;;2.00;;
37495;SDS011;23346;52.088;4.746;2023-02-23T16:22:59;16.50;;;2.73;;
37495;SDS011;23346;52.088;4.746;2023-02-23T16:25:27;17.27;;;2.67;;
37495;SDS011;23346;52.088;4.746;2023-02-23T16:27:55;15.60;;;2.27;;
37495;SDS011;23346;52.088;4.746;2023-02-23T16:30:34;10.50;;;2.13;;
37495;SDS011;23346;52.088;4.746;2023-02-23T16:33:13;13.53;;;3.17;;
37495;SDS011;23346;52.088;4.746;2023-02-23T16:35:45;15.63;;;2.27;;
37495;SDS011;23346;52.088;4.746;2023-02-23T16:38:13;11.93;;;2.60;;
37495;SDS011;23346;52.088;4.746;2023-02-23T16:40:42;18.60;;;4.13;;
37495;SDS011;23346;52.088;4.746;2023-02-23T16:43:09;22.60;;;3.27;;
37495;SDS011;23346;52.088;4.746;2023-02-23T16:45:35;18.70;;;4.03;;
37495;SDS011;23346;52.088;4.746;2023-02-23T16:48:01;23.73;;;3.37;;
37495;SDS011;23346;52.088;4.746;2023-02-23T16:50:28;13.53;;;2.60;;
37495;SDS011;23346;52.088;4.746;2023-02-23T16:52:54;20.17;;;2.60;;